sensor_id;sensor_type;location;lat;lon;timestamp;pressure;altitude;pressure_sealevel;temperature;humidity
21742;BME280;11033;47.490;11.116;2023-04-05T00:02:18;93414.88;;;-1.02;70.33
21742;BME280;11033;47.490;11.116;2023-04-05T00:04:45;93406.88;;;-0.99;71.09
21742;BME280;11033;47.490;11.116;2023-04-05T00:07:21;93409.97;;;-0.83;68.43
21742;BME280;11033;47.490;11.116;2023-04-05T00:09:48;93407.47;;;-0.96;69.01
21742;BME280;11033;47.490;11.116;2023-04-05T00:12:14;93410.41;;;-1.00;70.77
21742;BME280;11033;47.490;11.116;2023-04-05T00:14:40;93411.91;;;-1.09;71.35
21742;BME280;11033;47.490;11.116;2023-04-05T00:17:05;93416.50;;;-1.12;70.57
21742;BME280;11033;47.490;11.116;2023-04-05T00:19:31;93406.53;;;-1.06;69.87
21742;BME280;11033;47.490;11.116;2023-04-05T00:22:00;93403.81;;;-1.15;71.15
21742;BME280;11033;47.490;11.116;2023-04-05T00:24:26;93411.06;;;-1.20;71.92
21742;BME280;11033;47.490;11.116;2023-04-05T00:26:53;93403.53;;;-1.23;71.54
21742;BME280;11033;47.490;11.116;2023-04-05T00:29:18;93406.53;;;-1.06;69.31
21742;BME280;11033;47.490;11.116;2023-04-05T00:31:44;93407.22;;;-1.15;69.87
21742;BME280;11033;47.490;11.116;2023-04-05T00:34:09;93406.00;;;-1.22;70.66
21742;BME280;11033;47.490;11.116;2023-04-05T00:36:36;93410.00;;;-1.29;71.46
21742;BME280;11033;47.490;11.116;2023-04-05T00:39:01;93400.69;;;-1.32;70.79
21742;BME280;11033;47.490;11.116;2023-04-05T00:41:27;93404.53;;;-1.37;71.12
21742;BME280;11033;47.490;11.116;2023-04-05T00:43:52;93404.88;;;-1.42;71.79
21742;BME280;11033;47.490;11.116;2023-04-05T00:46:17;93406.53;;;-1.41;72.17
21742;BME280;11033;47.490;11.116;2023-04-05T00:48:43;93400.88;;;-1.46;70.67
21742;BME280;11033;47.490;11.116;2023-04-05T00:51:10;93400.97;;;-1.47;70.53
21742;BME280;11033;47.490;11.116;2023-04-05T00:53:36;93393.78;;;-1.55;72.52
21742;BME280;11033;47.490;11.116;2023-04-05T00:56:02;93397.19;;;-1.54;71.96
21742;BME280;11033;47.490;11.116;2023-04-05T00:58:30;93393.03;;;-1.68;73.69
21742;BME280;11033;47.490;11.116;2023-04-05T01:01:01;93394.09;;;-1.71;73.28
21742;BME280;11033;47.490;11.116;2023-04-05T01:03:31;93395.13;;;-1.73;73.41
21742;BME280;11033;47.490;11.116;2023-04-05T01:09:20;93380.28;;;-1.58;71.06
21742;BME280;11033;47.490;11.116;2023-04-05T01:11:51;93381.06;;;-1.69;72.08
21742;BME280;11033;47.490;11.116;2023-04-05T01:14:19;93375.94;;;-1.58;70.35
21742;BME280;11033;47.490;11.116;2023-04-05T01:16:45;93382.59;;;-1.67;70.96
21742;BME280;11033;47.490;11.116;2023-04-05T01:19:13;93371.56;;;-1.69;70.47
21742;BME280;11033;47.490;11.116;2023-04-05T01:22:16;93374.72;;;-1.76;71.74
21742;BME280;11033;47.490;11.116;2023-04-05T01:30:06;93362.75;;;-1.77;72.67
21742;BME280;11033;47.490;11.116;2023-04-05T01:35:29;93364.03;;;-1.96;74.76
21742;BME280;11033;47.490;11.116;2023-04-05T01:38:01;93361.75;;;-1.87;73.88
21742;BME280;11033;47.490;11.116;2023-04-05T01:40:27;93360.94;;;-1.88;73.86
21742;BME280;11033;47.490;11.116;2023-04-05T01:42:53;93352.97;;;-1.85;73.35
21742;BME280;11033;47.490;11.116;2023-04-05T01:45:19;93352.03;;;-1.84;73.52
21742;BME280;11033;47.490;11.116;2023-04-05T01:47:44;93353.69;;;-1.83;73.03
21742;BME280;11033;47.490;11.116;2023-04-05T01:50:09;93350.25;;;-1.95;74.62
21742;BME280;11033;47.490;11.116;2023-04-05T01:52:35;93345.50;;;-2.01;75.04
21742;BME280;11033;47.490;11.116;2023-04-05T01:55:00;93351.13;;;-1.96;73.50
21742;BME280;11033;47.490;11.116;2023-04-05T01:57:27;93347.34;;;-2.03;75.52
21742;BME280;11033;47.490;11.116;2023-04-05T01:59:52;93350.50;;;-2.10;75.27
21742;BME280;11033;47.490;11.116;2023-04-05T02:02:17;93344.41;;;-2.09;75.14
21742;BME280;11033;47.490;11.116;2023-04-05T02:04:43;93350.72;;;-2.13;75.00
21742;BME280;11033;47.490;11.116;2023-04-05T02:07:08;93345.22;;;-2.09;73.79
21742;BME280;11033;47.490;11.116;2023-04-05T02:09:33;93342.84;;;-2.12;74.21
21742;BME280;11033;47.490;11.116;2023-04-05T02:11:58;93336.44;;;-2.06;72.25
21742;BME280;11033;47.490;11.116;2023-04-05T02:14:24;93342.41;;;-2.06;73.61
21742;BME280;11033;47.490;11.116;2023-04-05T02:16:49;93335.28;;;-2.26;74.24
21742;BME280;11033;47.490;11.116;2023-04-05T02:19:15;93337.31;;;-2.18;74.62
21742;BME280;11033;47.490;11.116;2023-04-05T02:21:47;93332.03;;;-2.17;73.14
21742;BME280;11033;47.490;11.116;2023-04-05T02:24:13;93333.09;;;-2.19;74.23
21742;BME280;11033;47.490;11.116;2023-04-05T02:26:38;93336.81;;;-2.24;74.81
21742;BME280;11033;47.490;11.116;2023-04-05T02:29:04;93339.00;;;-2.30;75.62
21742;BME280;11033;47.490;11.116;2023-04-05T02:31:29;93333.84;;;-2.30;75.56
21742;BME280;11033;47.490;11.116;2023-04-05T02:33:54;93330.13;;;-2.26;74.49
21742;BME280;11033;47.490;11.116;2023-04-05T02:36:20;93326.00;;;-2.29;73.90
21742;BME280;11033;47.490;11.116;2023-04-05T02:38:46;93318.22;;;-2.40;74.76
21742;BME280;11033;47.490;11.116;2023-04-05T02:41:11;93320.31;;;-2.45;75.64
21742;BME280;11033;47.490;11.116;2023-04-05T02:43:37;93319.47;;;-2.45;74.32
21742;BME280;11033;47.490;11.116;2023-04-05T02:46:02;93320.31;;;-2.45;75.21
21742;BME280;11033;47.490;11.116;2023-04-05T02:48:28;93321.72;;;-2.41;74.79
21742;BME280;11033;47.490;11.116;2023-04-05T02:50:53;93309.38;;;-2.48;74.56
21742;BME280;11033;47.490;11.116;2023-04-05T02:53:19;93306.09;;;-2.50;75.72
21742;BME280;11033;47.490;11.116;2023-04-05T02:55:52;93310.22;;;-2.61;75.74
21742;BME280;11033;47.490;11.116;2023-04-05T02:58:18;93306.31;;;-2.53;74.96
21742;BME280;11033;47.490;11.116;2023-04-05T03:00:45;93301.38;;;-2.57;75.21
21742;BME280;11033;47.490;11.116;2023-04-05T03:03:15;93303.00;;;-2.56;75.74
21742;BME280;11033;47.490;11.116;2023-04-05T03:05:41;93293.75;;;-2.58;75.23
21742;BME280;11033;47.490;11.116;2023-04-05T03:08:07;93299.09;;;-2.61;76.64
21742;BME280;11033;47.490;11.116;2023-04-05T03:10:32;93301.78;;;-2.63;77.43
21742;BME280;11033;47.490;11.116;2023-04-05T03:13:00;93293.53;;;-2.68;74.95
21742;BME280;11033;47.490;11.116;2023-04-05T03:15:25;93293.75;;;-2.58;75.50
21742;BME280;11033;47.490;11.116;2023-04-05T03:17:52;93292.19;;;-2.61;75.21
21742;BME280;11033;47.490;11.116;2023-04-05T03:20:17;93291.28;;;-2.60;76.34
21742;BME280;11033;47.490;11.116;2023-04-05T03:22:42;93296.63;;;-2.63;76.10
21742;BME280;11033;47.490;11.116;2023-04-05T03:25:08;93289.81;;;-2.64;75.82
21742;BME280;11033;47.490;11.116;2023-04-05T03:27:33;93283.44;;;-2.71;76.64
21742;BME280;11033;47.490;11.116;2023-04-05T03:29:58;93285.97;;;-2.82;77.73
21742;BME280;11033;47.490;11.116;2023-04-05T03:32:23;93286.97;;;-2.72;76.84
21742;BME280;11033;47.490;11.116;2023-04-05T03:34:49;93284.06;;;-2.67;76.34
21742;BME280;11033;47.490;11.116;2023-04-05T03:37:15;93280.16;;;-2.73;76.25
21742;BME280;11033;47.490;11.116;2023-04-05T03:39:40;93278.94;;;-2.80;76.00
21742;BME280;11033;47.490;11.116;2023-04-05T03:42:05;93277.78;;;-2.76;75.67
21742;BME280;11033;47.490;11.116;2023-04-05T03:44:31;93280.47;;;-2.77;75.39
21742;BME280;11033;47.490;11.116;2023-04-05T03:46:56;93276.66;;;-2.72;74.53
21742;BME280;11033;47.490;11.116;2023-04-05T03:49:22;93279.22;;;-2.72;75.04
21742;BME280;11033;47.490;11.116;2023-04-05T03:51:47;93271.72;;;-2.75;74.94
21742;BME280;11033;47.490;11.116;2023-04-05T03:54:12;93269.47;;;-2.79;74.71
21742;BME280;11033;47.490;11.116;2023-04-05T03:56:38;93267.31;;;-2.85;74.67
21742;BME280;11033;47.490;11.116;2023-04-05T03:59:03;93269.63;;;-2.70;74.12
21742;BME280;11033;47.490;11.116;2023-04-05T04:01:30;93270.09;;;-2.89;75.17
21742;BME280;11033;47.490;11.116;2023-04-05T04:03:55;93273.56;;;-2.77;74.58
21742;BME280;11033;47.490;11.116;2023-04-05T04:06:21;93275.44;;;-2.79;74.55
21742;BME280;11033;47.490;11.116;2023-04-05T04:08:46;93279.78;;;-2.79;74.10
21742;BME280;11033;47.490;11.116;2023-04-05T04:11:12;93271.50;;;-2.72;73.58
21742;BME280;11033;47.490;11.116;2023-04-05T04:13:37;93277.19;;;-2.79;74.52
21742;BME280;11033;47.490;11.116;2023-04-05T04:16:02;93269.69;;;-2.82;76.12
21742;BME280;11033;47.490;11.116;2023-04-05T04:18:28;93267.81;;;-2.80;75.45
21742;BME280;11033;47.490;11.116;2023-04-05T04:20:53;93263.69;;;-2.83;75.51
21742;BME280;11033;47.490;11.116;2023-04-05T04:23:18;93274.66;;;-2.92;75.98
21742;BME280;11033;47.490;11.116;2023-04-05T04:25:44;93269.28;;;-2.89;76.00
21742;BME280;11033;47.490;11.116;2023-04-05T04:28:10;93263.31;;;-2.90;76.36
21742;BME280;11033;47.490;11.116;2023-04-05T04:30:37;93264.66;;;-2.97;75.81
21742;BME280;11033;47.490;11.116;2023-04-05T04:33:02;93269.94;;;-2.98;76.81
21742;BME280;11033;47.490;11.116;2023-04-05T04:35:30;93269.53;;;-3.05;76.56
21742;BME280;11033;47.490;11.116;2023-04-05T04:38:00;93268.50;;;-3.02;75.90
21742;BME280;11033;47.490;11.116;2023-04-05T04:40:30;93261.38;;;-2.99;75.47
21742;BME280;11033;47.490;11.116;2023-04-05T04:43:23;93259.84;;;-3.01;75.54
21742;BME280;11033;47.490;11.116;2023-04-05T04:45:50;93254.06;;;-3.05;75.52
21742;BME280;11033;47.490;11.116;2023-04-05T04:48:19;93265.44;;;-2.83;74.21
21742;BME280;11033;47.490;11.116;2023-04-05T04:50:46;93258.91;;;-3.00;74.84
21742;BME280;11033;47.490;11.116;2023-04-05T04:53:12;93261.28;;;-2.97;74.72
21742;BME280;11033;47.490;11.116;2023-04-05T04:55:40;93268.38;;;-3.01;76.03
21742;BME280;11033;47.490;11.116;2023-04-05T04:58:07;93260.78;;;-3.02;76.63
21742;BME280;11033;47.490;11.116;2023-04-05T05:00:42;93269.75;;;-3.08;77.35
21742;BME280;11033;47.490;11.116;2023-04-05T05:03:09;93260.44;;;-2.98;76.41
21742;BME280;11033;47.490;11.116;2023-04-05T05:05:40;93274.03;;;-2.96;75.44
21742;BME280;11033;47.490;11.116;2023-04-05T05:08:06;93264.50;;;-3.06;75.15
21742;BME280;11033;47.490;11.116;2023-04-05T05:10:31;93273.47;;;-3.12;76.92
21742;BME280;11033;47.490;11.116;2023-04-05T05:12:57;93277.38;;;-3.06;77.53
21742;BME280;11033;47.490;11.116;2023-04-05T05:15:22;93272.44;;;-3.09;77.91
21742;BME280;11033;47.490;11.116;2023-04-05T05:17:47;93283.25;;;-3.17;78.31
21742;BME280;11033;47.490;11.116;2023-04-05T05:20:17;93277.78;;;-3.12;78.31
21742;BME280;11033;47.490;11.116;2023-04-05T05:22:42;93283.34;;;-3.06;77.62
21742;BME280;11033;47.490;11.116;2023-04-05T05:25:08;93286.13;;;-3.09;77.81
21742;BME280;11033;47.490;11.116;2023-04-05T05:27:34;93292.59;;;-3.03;77.93
21742;BME280;11033;47.490;11.116;2023-04-05T05:29:59;93294.34;;;-2.91;76.76
21742;BME280;11033;47.490;11.116;2023-04-05T05:32:25;93283.75;;;-2.99;76.57
21742;BME280;11033;47.490;11.116;2023-04-05T05:34:50;93287.03;;;-2.97;76.87
21742;BME280;11033;47.490;11.116;2023-04-05T05:37:16;93285.38;;;-2.98;77.53
21742;BME280;11033;47.490;11.116;2023-04-05T05:39:42;93285.78;;;-2.92;76.80
21742;BME280;11033;47.490;11.116;2023-04-05T05:42:10;93288.47;;;-2.93;77.33
21742;BME280;11033;47.490;11.116;2023-04-05T05:44:35;93297.72;;;-2.91;76.74
21742;BME280;11033;47.490;11.116;2023-04-05T05:47:01;93296.31;;;-2.95;77.95
21742;BME280;11033;47.490;11.116;2023-04-05T05:49:27;93298.88;;;-2.95;78.60
21742;BME280;11033;47.490;11.116;2023-04-05T05:51:52;93306.78;;;-2.85;77.83
21742;BME280;11033;47.490;11.116;2023-04-05T05:54:18;93304.09;;;-2.83;78.28
21742;BME280;11033;47.490;11.116;2023-04-05T05:56:43;93297.91;;;-2.81;77.37
21742;BME280;11033;47.490;11.116;2023-04-05T05:59:08;93296.06;;;-2.79;77.65
21742;BME280;11033;47.490;11.116;2023-04-05T06:01:34;93297.47;;;-2.75;77.00
21742;BME280;11033;47.490;11.116;2023-04-05T06:04:09;93295.41;;;-2.70;76.19
21742;BME280;11033;47.490;11.116;2023-04-05T06:06:34;93293.97;;;-2.74;77.21
21742;BME280;11033;47.490;11.116;2023-04-05T06:09:00;93295.41;;;-2.70;77.17
21742;BME280;11033;47.490;11.116;2023-04-05T06:11:25;93288.16;;;-2.65;76.23
21742;BME280;11033;47.490;11.116;2023-04-05T06:13:51;93293.09;;;-2.62;77.45
21742;BME280;11033;47.490;11.116;2023-04-05T06:16:19;93287.78;;;-2.59;76.05
21742;BME280;11033;47.490;11.116;2023-04-05T06:18:44;93287.56;;;-2.56;74.95
21742;BME280;11033;47.490;11.116;2023-04-05T06:21:10;93292.88;;;-2.46;75.05
21742;BME280;11033;47.490;11.116;2023-04-05T06:23:35;93284.38;;;-2.35;74.73
21742;BME280;11033;47.490;11.116;2023-04-05T06:26:01;93283.16;;;-2.42;75.01
21742;BME280;11033;47.490;11.116;2023-04-05T06:28:26;93284.00;;;-2.42;75.10
21742;BME280;11033;47.490;11.116;2023-04-05T06:30:52;93274.75;;;-2.33;74.81
21742;BME280;11033;47.490;11.116;2023-04-05T06:33:18;93266.34;;;-2.24;74.75
21742;BME280;11033;47.490;11.116;2023-04-05T06:35:43;93265.44;;;-2.23;75.34
21742;BME280;11033;47.490;11.116;2023-04-05T06:38:08;93278.31;;;-2.23;75.69
21742;BME280;11033;47.490;11.116;2023-04-05T06:40:33;93265.25;;;-2.09;74.30
21742;BME280;11033;47.490;11.116;2023-04-05T06:42:59;93264.78;;;-2.03;75.12
21742;BME280;11033;47.490;11.116;2023-04-05T06:45:24;93265.28;;;-1.98;73.83
21742;BME280;11033;47.490;11.116;2023-04-05T06:47:50;93258.53;;;-1.87;72.77
21742;BME280;11033;47.490;11.116;2023-04-05T06:50:15;93258.31;;;-1.84;73.50
21742;BME280;11033;47.490;11.116;2023-04-05T06:52:40;93263.94;;;-1.79;73.51
21742;BME280;11033;47.490;11.116;2023-04-05T06:55:06;93259.72;;;-1.80;74.74
21742;BME280;11033;47.490;11.116;2023-04-05T06:57:32;93267.94;;;-1.75;75.00
21742;BME280;11033;47.490;11.116;2023-04-05T06:59:58;93259.84;;;-1.71;75.37
21742;BME280;11033;47.490;11.116;2023-04-05T07:02:23;93268.44;;;-1.59;74.41
21742;BME280;11033;47.490;11.116;2023-04-05T07:04:48;93258.69;;;-1.55;74.03
21742;BME280;11033;47.490;11.116;2023-04-05T07:07:14;93259.06;;;-1.49;73.58
21742;BME280;11033;47.490;11.116;2023-04-05T07:09:39;93256.72;;;-1.41;73.37
21742;BME280;11033;47.490;11.116;2023-04-05T07:12:06;93258.47;;;-1.41;72.40
21742;BME280;11033;47.490;11.116;2023-04-05T07:14:33;93259.53;;;-1.33;72.43
21742;BME280;11033;47.490;11.116;2023-04-05T07:16:59;93252.41;;;-1.29;72.18
21742;BME280;11033;47.490;11.116;2023-04-05T07:19:24;93253.34;;;-1.19;71.91
21742;BME280;11033;47.490;11.116;2023-04-05T07:21:51;93250.88;;;-1.20;71.21
21742;BME280;11033;47.490;11.116;2023-04-05T07:24:16;93248.53;;;-1.12;71.45
21742;BME280;11033;47.490;11.116;2023-04-05T07:26:41;93241.00;;;-1.04;71.19
21742;BME280;11033;47.490;11.116;2023-04-05T07:29:07;93240.53;;;-0.98;71.20
21742;BME280;11033;47.490;11.116;2023-04-05T07:31:33;93239.34;;;-0.94;71.66
21742;BME280;11033;47.490;11.116;2023-04-05T07:33:59;93240.50;;;-0.87;69.98
21742;BME280;11033;47.490;11.116;2023-04-05T07:36:25;93236.75;;;-0.83;70.17
21742;BME280;11033;47.490;11.116;2023-04-05T07:38:52;93244.72;;;-0.75;69.85
21742;BME280;11033;47.490;11.116;2023-04-05T07:41:18;93246.00;;;-0.69;70.18
21742;BME280;11033;47.490;11.116;2023-04-05T07:43:44;93239.56;;;-0.63;69.22
21742;BME280;11033;47.490;11.116;2023-04-05T07:46:09;93247.91;;;-0.60;68.86
21742;BME280;11033;47.490;11.116;2023-04-05T07:48:35;93244.13;;;-0.56;68.51
21742;BME280;11033;47.490;11.116;2023-04-05T07:51:05;93242.56;;;-0.47;67.84
21742;BME280;11033;47.490;11.116;2023-04-05T07:53:31;93237.84;;;-0.42;67.59
21742;BME280;11033;47.490;11.116;2023-04-05T07:55:56;93237.81;;;-0.31;67.57
21742;BME280;11033;47.490;11.116;2023-04-05T07:58:23;93239.84;;;-0.14;66.94
21742;BME280;11033;47.490;11.116;2023-04-05T08:00:48;93246.41;;;-0.10;66.10
21742;BME280;11033;47.490;11.116;2023-04-05T08:03:13;93233.84;;;-0.14;66.43
21742;BME280;11033;47.490;11.116;2023-04-05T08:05:39;93236.31;;;-0.13;66.45
21742;BME280;11033;47.490;11.116;2023-04-05T08:08:04;93231.09;;;-0.02;66.30
21742;BME280;11033;47.490;11.116;2023-04-05T08:10:29;93229.94;;;0.03;66.79
21742;BME280;11033;47.490;11.116;2023-04-05T08:12:55;93233.72;;;0.19;66.02
21742;BME280;11033;47.490;11.116;2023-04-05T08:15:20;93232.25;;;0.26;65.79
21742;BME280;11033;47.490;11.116;2023-04-05T08:17:45;93229.91;;;0.44;63.86
21742;BME280;11033;47.490;11.116;2023-04-05T08:20:11;93226.13;;;0.48;64.75
21742;BME280;11033;47.490;11.116;2023-04-05T08:22:36;93230.28;;;0.60;63.99
21742;BME280;11033;47.490;11.116;2023-04-05T08:25:02;93226.69;;;0.52;63.30
21742;BME280;11033;47.490;11.116;2023-04-05T08:27:27;93222.75;;;0.78;61.75
21742;BME280;11033;47.490;11.116;2023-04-05T08:29:52;93224.44;;;0.89;62.80
21742;BME280;11033;47.490;11.116;2023-04-05T08:32:17;93217.06;;;0.94;62.70
21742;BME280;11033;47.490;11.116;2023-04-05T08:34:43;93220.94;;;1.09;62.21
21742;BME280;11033;47.490;11.116;2023-04-05T08:37:08;93220.84;;;1.20;60.98
21742;BME280;11033;47.490;11.116;2023-04-05T08:39:34;93222.34;;;1.23;62.41
21742;BME280;11033;47.490;11.116;2023-04-05T08:42:07;93218.59;;;1.37;62.11
21742;BME280;11033;47.490;11.116;2023-04-05T08:44:36;93213.16;;;1.59;59.05
21742;BME280;11033;47.490;11.116;2023-04-05T08:47:01;93219.44;;;1.76;60.40
21742;BME280;11033;47.490;11.116;2023-04-05T08:49:26;93214.66;;;1.90;59.90
21742;BME280;11033;47.490;11.116;2023-04-05T08:51:52;93213.31;;;1.86;60.30
21742;BME280;11033;47.490;11.116;2023-04-05T08:54:18;93217.56;;;2.07;60.29
21742;BME280;11033;47.490;11.116;2023-04-05T08:56:46;93217.03;;;2.03;60.44
21742;BME280;11033;47.490;11.116;2023-04-05T08:59:15;93214.00;;;2.08;59.32
21742;BME280;11033;47.490;11.116;2023-04-05T09:01:42;93219.31;;;2.35;58.52
21742;BME280;11033;47.490;11.116;2023-04-05T09:04:14;93219.72;;;2.40;59.83
21742;BME280;11033;47.490;11.116;2023-04-05T09:06:40;93212.00;;;2.58;59.98
21742;BME280;11033;47.490;11.116;2023-04-05T09:09:07;93214.88;;;2.74;58.65
21742;BME280;11033;47.490;11.116;2023-04-05T09:11:33;93216.09;;;2.80;58.60
21742;BME280;11033;47.490;11.116;2023-04-05T09:14:02;93211.94;;;2.87;58.45
21742;BME280;11033;47.490;11.116;2023-04-05T09:16:28;93197.69;;;2.91;57.32
21742;BME280;11033;47.490;11.116;2023-04-05T09:18:54;93210.75;;;3.09;57.95
21742;BME280;11033;47.490;11.116;2023-04-05T09:21:19;93209.25;;;3.43;56.56
21742;BME280;11033;47.490;11.116;2023-04-05T09:23:52;93201.00;;;3.48;57.24
21742;BME280;11033;47.490;11.116;2023-04-05T09:26:24;93197.13;;;3.52;56.75
21742;BME280;11033;47.490;11.116;2023-04-05T09:28:50;93201.91;;;3.74;57.54
21742;BME280;11033;47.490;11.116;2023-04-05T09:31:32;93191.88;;;3.79;56.87
21742;BME280;11033;47.490;11.116;2023-04-05T09:34:02;93188.19;;;4.00;55.10
21742;BME280;11033;47.490;11.116;2023-04-05T09:36:29;93187.47;;;4.33;55.48
21742;BME280;11033;47.490;11.116;2023-04-05T09:39:04;93190.84;;;4.52;55.68
21742;BME280;11033;47.490;11.116;2023-04-05T09:41:31;93188.25;;;4.52;53.79
21742;BME280;11033;47.490;11.116;2023-04-05T09:43:56;93174.69;;;4.66;55.05
21742;BME280;11033;47.490;11.116;2023-04-05T09:46:29;93178.75;;;4.94;53.16
21742;BME280;11033;47.490;11.116;2023-04-05T09:48:58;93178.66;;;5.12;53.43
21742;BME280;11033;47.490;11.116;2023-04-05T09:51:34;93171.75;;;5.29;55.01
21742;BME280;11033;47.490;11.116;2023-04-05T09:54:04;93170.16;;;5.44;53.43
21742;BME280;11033;47.490;11.116;2023-04-05T09:56:34;93175.75;;;5.65;53.46
21742;BME280;11033;47.490;11.116;2023-04-05T09:59:08;93174.56;;;5.94;51.40
21742;BME280;11033;47.490;11.116;2023-04-05T10:01:35;93172.28;;;5.99;52.52
21742;BME280;11033;47.490;11.116;2023-04-05T10:04:01;93175.88;;;5.98;51.29
21742;BME280;11033;47.490;11.116;2023-04-05T10:06:40;93173.59;;;6.44;51.01
21742;BME280;11033;47.490;11.116;2023-04-05T10:09:07;93174.75;;;6.57;51.34
21742;BME280;11033;47.490;11.116;2023-04-05T10:11:33;93173.13;;;6.56;48.97
21742;BME280;11033;47.490;11.116;2023-04-05T10:14:01;93168.34;;;6.76;51.52
21742;BME280;11033;47.490;11.116;2023-04-05T10:16:29;93167.34;;;6.85;50.17
21742;BME280;11033;47.490;11.116;2023-04-05T10:18:56;93165.19;;;6.97;49.32
21742;BME280;11033;47.490;11.116;2023-04-05T10:21:22;93164.97;;;7.23;48.24
21742;BME280;11033;47.490;11.116;2023-04-05T10:24:04;93153.50;;;7.24;49.17
21742;BME280;11033;47.490;11.116;2023-04-05T10:26:44;93160.97;;;7.43;48.50
21742;BME280;11033;47.490;11.116;2023-04-05T10:29:16;93166.38;;;7.73;49.87
21742;BME280;11033;47.490;11.116;2023-04-05T10:31:54;93163.00;;;7.95;48.97
21742;BME280;11033;47.490;11.116;2023-04-05T10:35:08;93159.84;;;8.22;48.95
21742;BME280;11033;47.490;11.116;2023-04-05T10:37:45;93159.75;;;8.39;49.20
21742;BME280;11033;47.490;11.116;2023-04-05T10:40:19;93149.16;;;8.55;47.73
21742;BME280;11033;47.490;11.116;2023-04-05T10:42:46;93160.03;;;8.44;46.23
21742;BME280;11033;47.490;11.116;2023-04-05T10:45:16;93143.84;;;8.78;47.72
21742;BME280;11033;47.490;11.116;2023-04-05T10:47:47;93139.59;;;8.92;46.20
21742;BME280;11033;47.490;11.116;2023-04-05T10:50:23;93145.22;;;8.88;44.65
21742;BME280;11033;47.490;11.116;2023-04-05T10:52:50;93141.50;;;8.98;45.29
21742;BME280;11033;47.490;11.116;2023-04-05T10:55:17;93133.75;;;9.34;45.39
21742;BME280;11033;47.490;11.116;2023-04-05T10:57:43;93140.72;;;9.41;43.70
21742;BME280;11033;47.490;11.116;2023-04-05T11:00:10;93148.66;;;9.63;44.15
21742;BME280;11033;47.490;11.116;2023-04-05T11:02:36;93141.91;;;9.75;43.27
21742;BME280;11033;47.490;11.116;2023-04-05T11:05:03;93138.22;;;10.05;44.64
21742;BME280;11033;47.490;11.116;2023-04-05T11:07:41;93140.66;;;10.43;44.39
21742;BME280;11033;47.490;11.116;2023-04-05T11:10:15;93138.81;;;10.22;43.83
21742;BME280;11033;47.490;11.116;2023-04-05T11:20:50;93125.34;;;10.53;42.62
21742;BME280;11033;47.490;11.116;2023-04-05T11:23:18;93124.16;;;10.84;41.07
21742;BME280;11033;47.490;11.116;2023-04-05T11:25:46;93131.41;;;11.03;43.47
21742;BME280;11033;47.490;11.116;2023-04-05T11:28:35;93125.53;;;11.35;41.53
21742;BME280;11033;47.490;11.116;2023-04-05T11:31:12;93125.63;;;11.55;40.34
21742;BME280;11033;47.490;11.116;2023-04-05T11:36:07;93121.84;;;11.30;41.06
21742;BME280;11033;47.490;11.116;2023-04-05T11:38:33;93121.06;;;11.77;40.18
21742;BME280;11033;47.490;11.116;2023-04-05T11:41:06;93122.00;;;10.94;37.67
21742;BME280;11033;47.490;11.116;2023-04-05T11:43:32;93116.78;;;11.76;41.17
21742;BME280;11033;47.490;11.116;2023-04-05T11:46:01;93118.56;;;12.17;39.94
21742;BME280;11033;47.490;11.116;2023-04-05T11:48:28;93119.16;;;12.05;37.70
21742;BME280;11033;47.490;11.116;2023-04-05T11:50:54;93118.22;;;12.73;37.04
21742;BME280;11033;47.490;11.116;2023-04-05T11:53:20;93110.50;;;13.11;37.71
21742;BME280;11033;47.490;11.116;2023-04-05T11:55:47;93107.63;;;13.32;38.29
21742;BME280;11033;47.490;11.116;2023-04-05T11:58:17;93100.72;;;13.31;37.50
21742;BME280;11033;47.490;11.116;2023-04-05T12:00:44;93099.78;;;14.15;37.65
21742;BME280;11033;47.490;11.116;2023-04-05T12:03:14;93097.94;;;13.77;36.56
21742;BME280;11033;47.490;11.116;2023-04-05T12:05:52;93102.94;;;13.99;34.91
21742;BME280;11033;47.490;11.116;2023-04-05T12:08:19;93099.44;;;14.99;35.74
21742;BME280;11033;47.490;11.116;2023-04-05T12:13:32;93096.78;;;14.99;37.07
21742;BME280;11033;47.490;11.116;2023-04-05T12:15:59;93091.09;;;16.12;34.14
21742;BME280;11033;47.490;11.116;2023-04-05T12:18:26;93098.00;;;15.65;33.51
21742;BME280;11033;47.490;11.116;2023-04-05T12:20:54;93096.00;;;16.57;34.49
21742;BME280;11033;47.490;11.116;2023-04-05T12:23:24;93089.97;;;16.49;30.96
21742;BME280;11033;47.490;11.116;2023-04-05T12:25:50;93085.56;;;16.85;32.36
21742;BME280;11033;47.490;11.116;2023-04-05T12:28:16;93090.56;;;16.52;34.92
21742;BME280;11033;47.490;11.116;2023-04-05T12:33:31;93083.63;;;16.92;29.95
21742;BME280;11033;47.490;11.116;2023-04-05T12:35:57;93082.59;;;18.15;33.48
21742;BME280;11033;47.490;11.116;2023-04-05T12:38:26;93086.06;;;17.52;28.87
21742;BME280;11033;47.490;11.116;2023-04-05T12:40:52;93077.38;;;17.45;29.66
21742;BME280;11033;47.490;11.116;2023-04-05T12:43:18;93073.81;;;18.60;30.35
21742;BME280;11033;47.490;11.116;2023-04-05T12:45:45;93078.31;;;18.14;30.02
21742;BME280;11033;47.490;11.116;2023-04-05T12:48:21;93076.00;;;19.25;31.75
21742;BME280;11033;47.490;11.116;2023-04-05T12:50:48;93078.00;;;19.51;28.31
21742;BME280;11033;47.490;11.116;2023-04-05T12:53:22;93079.91;;;18.15;28.40
21742;BME280;11033;47.490;11.116;2023-04-05T12:55:50;93077.22;;;20.33;32.03
21742;BME280;11033;47.490;11.116;2023-04-05T12:58:16;93074.56;;;18.27;29.88
21742;BME280;11033;47.490;11.116;2023-04-05T13:00:42;93074.84;;;19.93;31.26
21742;BME280;11033;47.490;11.116;2023-04-05T13:03:14;93067.19;;;19.80;28.34
21742;BME280;11033;47.490;11.116;2023-04-05T13:05:40;93067.75;;;19.10;26.89
21742;BME280;11033;47.490;11.116;2023-04-05T13:08:06;93055.19;;;20.48;29.75
21742;BME280;11033;47.490;11.116;2023-04-05T13:10:32;93062.50;;;20.57;27.85
21742;BME280;11033;47.490;11.116;2023-04-05T13:12:57;93061.56;;;19.43;30.98
21742;BME280;11033;47.490;11.116;2023-04-05T13:15:22;93066.19;;;17.95;28.90
21742;BME280;11033;47.490;11.116;2023-04-05T13:17:48;93063.19;;;18.31;28.39
21742;BME280;11033;47.490;11.116;2023-04-05T13:20:17;93056.91;;;18.99;28.31
21742;BME280;11033;47.490;11.116;2023-04-05T13:22:43;93060.22;;;19.79;30.20